Weather at Salt Lake City International Airport

Public forecast

Using degrees Fahrenheit for public forecast. Weather courtesy of forecast.io.

Current aviation weather report (METAR) for Salt Lake City International Airport

Retrieved 2020/10/19 14:54 UTC (25 minutes ago):

KSLC 191454Z 14010KT 10SM FEW120 SCT180 BKN220 12/01 A3011 RMK AO2 SLP167 ACSL DSNT SE T01170006 53001

Aviation forecast (TAF) for Salt Lake City International Airport

Retrieved 2020/10/19 12:22 UTC (3 hours ago):

TAF KSLC 191120Z 1912/2018 15006KT P6SM FEW200 FM191800 33008KT P6SM SCT200 FM200300 15006KT P6SM SKC